sensor_id;sensor_type;location;lat;lon;timestamp;P1;durP1;ratioP1;P2;durP2;ratioP2
77117;SDS011;66072;50.238;19.228;2023-02-21T00:02:05;5.30;;;2.30;;
77117;SDS011;66072;50.238;19.228;2023-02-21T00:04:33;4.30;;;2.30;;
77117;SDS011;66072;50.238;19.228;2023-02-21T00:07:01;4.50;;;2.40;;
77117;SDS011;66072;50.238;19.228;2023-02-21T00:09:29;3.90;;;2.30;;
77117;SDS011;66072;50.238;19.228;2023-02-21T00:11:57;4.60;;;2.60;;
77117;SDS011;66072;50.238;19.228;2023-02-21T00:14:24;5.50;;;2.30;;
77117;SDS011;66072;50.238;19.228;2023-02-21T00:16:52;5.30;;;2.40;;
77117;SDS011;66072;50.238;19.228;2023-02-21T00:19:19;5.20;;;2.70;;
77117;SDS011;66072;50.238;19.228;2023-02-21T00:21:47;3.80;;;1.90;;
77117;SDS011;66072;50.238;19.228;2023-02-21T00:24:15;4.30;;;2.20;;
77117;SDS011;66072;50.238;19.228;2023-02-21T00:26:44;6.50;;;2.70;;
77117;SDS011;66072;50.238;19.228;2023-02-21T00:29:11;3.80;;;1.70;;
77117;SDS011;66072;50.238;19.228;2023-02-21T00:31:39;3.60;;;1.80;;
77117;SDS011;66072;50.238;19.228;2023-02-21T00:34:07;3.30;;;1.90;;
77117;SDS011;66072;50.238;19.228;2023-02-21T00:36:34;2.70;;;1.70;;
77117;SDS011;66072;50.238;19.228;2023-02-21T00:39:02;3.50;;;1.70;;
77117;SDS011;66072;50.238;19.228;2023-02-21T00:41:30;4.40;;;1.80;;
77117;SDS011;66072;50.238;19.228;2023-02-21T00:43:57;5.20;;;2.10;;
77117;SDS011;66072;50.238;19.228;2023-02-21T00:46:25;3.20;;;1.40;;
77117;SDS011;66072;50.238;19.228;2023-02-21T00:48:52;4.70;;;2.00;;
77117;SDS011;66072;50.238;19.228;2023-02-21T00:51:20;3.80;;;1.60;;
77117;SDS011;66072;50.238;19.228;2023-02-21T00:53:48;3.60;;;2.00;;
77117;SDS011;66072;50.238;19.228;2023-02-21T00:56:15;3.40;;;1.70;;
77117;SDS011;66072;50.238;19.228;2023-02-21T00:58:43;3.90;;;1.90;;
77117;SDS011;66072;50.238;19.228;2023-02-21T01:01:10;3.10;;;1.80;;
77117;SDS011;66072;50.238;19.228;2023-02-21T01:03:39;3.10;;;1.60;;
77117;SDS011;66072;50.238;19.228;2023-02-21T01:06:09;3.90;;;1.80;;
77117;SDS011;66072;50.238;19.228;2023-02-21T01:08:42;3.70;;;2.20;;
77117;SDS011;66072;50.238;19.228;2023-02-21T01:11:14;3.90;;;1.80;;
77117;SDS011;66072;50.238;19.228;2023-02-21T01:13:43;2.70;;;1.60;;
77117;SDS011;66072;50.238;19.228;2023-02-21T01:16:11;3.50;;;1.90;;
77117;SDS011;66072;50.238;19.228;2023-02-21T01:18:39;3.90;;;1.70;;
77117;SDS011;66072;50.238;19.228;2023-02-21T01:21:10;3.40;;;1.60;;
77117;SDS011;66072;50.238;19.228;2023-02-21T01:26:10;4.80;;;1.80;;
77117;SDS011;66072;50.238;19.228;2023-02-21T01:28:38;4.20;;;2.00;;
77117;SDS011;66072;50.238;19.228;2023-02-21T01:31:06;3.50;;;2.00;;
77117;SDS011;66072;50.238;19.228;2023-02-21T01:33:39;4.40;;;1.90;;
77117;SDS011;66072;50.238;19.228;2023-02-21T01:36:08;3.00;;;1.60;;
77117;SDS011;66072;50.238;19.228;2023-02-21T01:38:36;4.30;;;2.00;;
77117;SDS011;66072;50.238;19.228;2023-02-21T01:41:03;4.00;;;2.10;;
77117;SDS011;66072;50.238;19.228;2023-02-21T01:43:31;3.10;;;1.80;;
77117;SDS011;66072;50.238;19.228;2023-02-21T01:45:59;3.40;;;1.90;;
77117;SDS011;66072;50.238;19.228;2023-02-21T01:48:26;3.60;;;1.70;;
77117;SDS011;66072;50.238;19.228;2023-02-21T01:50:56;4.00;;;2.00;;
77117;SDS011;66072;50.238;19.228;2023-02-21T01:53:25;3.30;;;1.70;;
77117;SDS011;66072;50.238;19.228;2023-02-21T01:55:54;3.80;;;2.00;;
77117;SDS011;66072;50.238;19.228;2023-02-21T01:58:23;3.60;;;1.90;;
77117;SDS011;66072;50.238;19.228;2023-02-21T02:00:53;3.80;;;2.00;;
77117;SDS011;66072;50.238;19.228;2023-02-21T02:03:20;4.70;;;1.80;;
77117;SDS011;66072;50.238;19.228;2023-02-21T02:05:49;3.30;;;1.80;;
77117;SDS011;66072;50.238;19.228;2023-02-21T02:08:24;3.90;;;1.90;;
77117;SDS011;66072;50.238;19.228;2023-02-21T02:10:59;3.90;;;1.90;;
77117;SDS011;66072;50.238;19.228;2023-02-21T02:13:50;4.30;;;2.40;;
77117;SDS011;66072;50.238;19.228;2023-02-21T02:27:50;7.90;;;3.80;;
77117;SDS011;66072;50.238;19.228;2023-02-21T02:31:04;5.60;;;3.70;;
77117;SDS011;66072;50.238;19.228;2023-02-21T02:37:01;7.60;;;3.90;;
77117;SDS011;66072;50.238;19.228;2023-02-21T02:42:15;5.60;;;3.80;;
77117;SDS011;66072;50.238;19.228;2023-02-21T02:45:00;6.40;;;5.00;;
77117;SDS011;66072;50.238;19.228;2023-02-21T02:47:35;7.00;;;4.50;;
77117;SDS011;66072;50.238;19.228;2023-02-21T02:50:05;5.90;;;4.40;;
77117;SDS011;66072;50.238;19.228;2023-02-21T02:52:36;7.80;;;4.60;;
77117;SDS011;66072;50.238;19.228;2023-02-21T02:55:05;6.40;;;4.10;;
77117;SDS011;66072;50.238;19.228;2023-02-21T03:00:26;6.80;;;3.50;;
77117;SDS011;66072;50.238;19.228;2023-02-21T03:06:01;6.80;;;3.80;;
77117;SDS011;66072;50.238;19.228;2023-02-21T03:08:45;5.40;;;4.10;;
77117;SDS011;66072;50.238;19.228;2023-02-21T03:11:16;7.60;;;4.30;;
77117;SDS011;66072;50.238;19.228;2023-02-21T03:13:48;5.50;;;4.10;;
77117;SDS011;66072;50.238;19.228;2023-02-21T03:16:32;5.80;;;4.40;;
77117;SDS011;66072;50.238;19.228;2023-02-21T03:19:03;8.00;;;4.20;;
77117;SDS011;66072;50.238;19.228;2023-02-21T03:21:42;7.20;;;5.20;;
77117;SDS011;66072;50.238;19.228;2023-02-21T03:24:15;10.90;;;8.10;;
77117;SDS011;66072;50.238;19.228;2023-02-21T03:26:47;9.40;;;6.70;;
77117;SDS011;66072;50.238;19.228;2023-02-21T03:29:17;9.40;;;7.10;;
77117;SDS011;66072;50.238;19.228;2023-02-21T03:31:48;9.30;;;6.70;;
77117;SDS011;66072;50.238;19.228;2023-02-21T03:34:37;6.50;;;4.40;;
77117;SDS011;66072;50.238;19.228;2023-02-21T03:37:07;11.30;;;8.00;;
77117;SDS011;66072;50.238;19.228;2023-02-21T03:39:37;9.50;;;6.60;;
77117;SDS011;66072;50.238;19.228;2023-02-21T03:42:05;11.30;;;7.50;;
77117;SDS011;66072;50.238;19.228;2023-02-21T03:44:33;10.90;;;7.70;;
77117;SDS011;66072;50.238;19.228;2023-02-21T03:47:00;10.70;;;7.50;;
77117;SDS011;66072;50.238;19.228;2023-02-21T03:49:28;10.10;;;7.10;;
77117;SDS011;66072;50.238;19.228;2023-02-21T03:51:55;9.30;;;6.30;;
77117;SDS011;66072;50.238;19.228;2023-02-21T03:54:23;10.70;;;7.10;;
77117;SDS011;66072;50.238;19.228;2023-02-21T03:56:51;8.70;;;5.80;;
77117;SDS011;66072;50.238;19.228;2023-02-21T03:59:18;8.50;;;6.00;;
77117;SDS011;66072;50.238;19.228;2023-02-21T04:01:46;8.80;;;6.50;;
77117;SDS011;66072;50.238;19.228;2023-02-21T04:04:13;7.10;;;4.60;;
77117;SDS011;66072;50.238;19.228;2023-02-21T04:06:41;5.50;;;4.20;;
77117;SDS011;66072;50.238;19.228;2023-02-21T04:09:09;5.20;;;3.10;;
77117;SDS011;66072;50.238;19.228;2023-02-21T04:11:36;5.60;;;2.90;;
77117;SDS011;66072;50.238;19.228;2023-02-21T04:14:04;5.00;;;3.00;;
77117;SDS011;66072;50.238;19.228;2023-02-21T04:16:31;3.60;;;2.10;;
77117;SDS011;66072;50.238;19.228;2023-02-21T04:18:59;5.50;;;3.20;;
77117;SDS011;66072;50.238;19.228;2023-02-21T04:21:27;6.30;;;4.00;;
77117;SDS011;66072;50.238;19.228;2023-02-21T04:23:54;5.10;;;3.50;;
77117;SDS011;66072;50.238;19.228;2023-02-21T04:26:22;4.80;;;2.60;;
77117;SDS011;66072;50.238;19.228;2023-02-21T04:28:50;7.50;;;4.20;;
77117;SDS011;66072;50.238;19.228;2023-02-21T04:31:18;4.90;;;3.80;;
77117;SDS011;66072;50.238;19.228;2023-02-21T04:33:46;3.90;;;2.90;;
77117;SDS011;66072;50.238;19.228;2023-02-21T04:36:14;5.00;;;3.20;;
77117;SDS011;66072;50.238;19.228;2023-02-21T04:38:42;5.80;;;4.00;;
77117;SDS011;66072;50.238;19.228;2023-02-21T04:41:09;6.90;;;4.10;;
77117;SDS011;66072;50.238;19.228;2023-02-21T04:43:37;4.70;;;3.30;;
77117;SDS011;66072;50.238;19.228;2023-02-21T04:46:09;5.90;;;4.30;;
77117;SDS011;66072;50.238;19.228;2023-02-21T04:48:37;5.30;;;3.40;;
77117;SDS011;66072;50.238;19.228;2023-02-21T04:51:04;5.10;;;3.20;;
77117;SDS011;66072;50.238;19.228;2023-02-21T04:53:42;4.70;;;3.00;;
77117;SDS011;66072;50.238;19.228;2023-02-21T04:56:10;6.00;;;4.30;;
77117;SDS011;66072;50.238;19.228;2023-02-21T04:58:38;6.00;;;4.20;;
77117;SDS011;66072;50.238;19.228;2023-02-21T05:01:12;5.00;;;3.50;;
77117;SDS011;66072;50.238;19.228;2023-02-21T05:03:44;6.30;;;4.10;;
77117;SDS011;66072;50.238;19.228;2023-02-21T05:06:22;6.30;;;4.00;;
77117;SDS011;66072;50.238;19.228;2023-02-21T05:08:51;6.00;;;4.70;;
77117;SDS011;66072;50.238;19.228;2023-02-21T05:11:19;7.70;;;4.90;;
77117;SDS011;66072;50.238;19.228;2023-02-21T05:13:47;9.90;;;6.10;;
77117;SDS011;66072;50.238;19.228;2023-02-21T05:16:16;9.90;;;7.40;;
77117;SDS011;66072;50.238;19.228;2023-02-21T05:18:45;9.50;;;6.50;;
77117;SDS011;66072;50.238;19.228;2023-02-21T05:21:15;9.10;;;5.40;;
77117;SDS011;66072;50.238;19.228;2023-02-21T05:23:43;7.70;;;6.20;;
77117;SDS011;66072;50.238;19.228;2023-02-21T05:26:11;9.60;;;5.00;;
77117;SDS011;66072;50.238;19.228;2023-02-21T05:28:39;9.10;;;6.20;;
77117;SDS011;66072;50.238;19.228;2023-02-21T05:31:07;7.70;;;5.80;;
77117;SDS011;66072;50.238;19.228;2023-02-21T05:33:35;10.10;;;6.50;;
77117;SDS011;66072;50.238;19.228;2023-02-21T05:36:03;7.80;;;5.50;;
77117;SDS011;66072;50.238;19.228;2023-02-21T05:38:30;11.00;;;6.50;;
77117;SDS011;66072;50.238;19.228;2023-02-21T05:40:58;7.90;;;5.50;;
77117;SDS011;66072;50.238;19.228;2023-02-21T05:43:26;12.00;;;7.60;;
77117;SDS011;66072;50.238;19.228;2023-02-21T05:45:55;9.20;;;6.60;;
77117;SDS011;66072;50.238;19.228;2023-02-21T05:48:23;8.90;;;6.10;;
77117;SDS011;66072;50.238;19.228;2023-02-21T05:50:50;9.80;;;6.40;;
77117;SDS011;66072;50.238;19.228;2023-02-21T05:53:18;9.60;;;6.00;;
77117;SDS011;66072;50.238;19.228;2023-02-21T05:55:45;7.20;;;5.40;;
77117;SDS011;66072;50.238;19.228;2023-02-21T05:58:13;8.70;;;5.80;;
77117;SDS011;66072;50.238;19.228;2023-02-21T06:00:40;9.10;;;5.70;;
77117;SDS011;66072;50.238;19.228;2023-02-21T06:03:08;9.00;;;6.60;;
77117;SDS011;66072;50.238;19.228;2023-02-21T06:05:36;9.70;;;6.20;;
77117;SDS011;66072;50.238;19.228;2023-02-21T06:08:04;11.10;;;5.60;;
77117;SDS011;66072;50.238;19.228;2023-02-21T06:10:31;9.90;;;6.80;;
77117;SDS011;66072;50.238;19.228;2023-02-21T06:12:59;10.80;;;6.40;;
77117;SDS011;66072;50.238;19.228;2023-02-21T06:15:26;11.70;;;7.40;;
77117;SDS011;66072;50.238;19.228;2023-02-21T06:17:54;11.20;;;7.30;;
77117;SDS011;66072;50.238;19.228;2023-02-21T06:20:22;10.60;;;6.90;;
77117;SDS011;66072;50.238;19.228;2023-02-21T06:22:49;13.00;;;7.80;;
77117;SDS011;66072;50.238;19.228;2023-02-21T06:25:17;12.30;;;7.90;;
77117;SDS011;66072;50.238;19.228;2023-02-21T06:27:45;14.00;;;10.00;;
77117;SDS011;66072;50.238;19.228;2023-02-21T06:30:13;11.10;;;7.10;;
77117;SDS011;66072;50.238;19.228;2023-02-21T06:32:41;11.90;;;7.40;;
77117;SDS011;66072;50.238;19.228;2023-02-21T06:35:09;9.80;;;7.00;;
77117;SDS011;66072;50.238;19.228;2023-02-21T06:37:37;11.20;;;7.80;;
77117;SDS011;66072;50.238;19.228;2023-02-21T06:40:04;10.90;;;6.70;;
77117;SDS011;66072;50.238;19.228;2023-02-21T06:42:32;9.80;;;6.40;;
77117;SDS011;66072;50.238;19.228;2023-02-21T06:45:00;13.90;;;8.70;;
77117;SDS011;66072;50.238;19.228;2023-02-21T06:47:28;13.00;;;8.00;;
77117;SDS011;66072;50.238;19.228;2023-02-21T06:49:55;11.00;;;6.50;;
77117;SDS011;66072;50.238;19.228;2023-02-21T06:52:23;9.10;;;6.40;;
77117;SDS011;66072;50.238;19.228;2023-02-21T06:54:51;8.70;;;5.80;;
77117;SDS011;66072;50.238;19.228;2023-02-21T06:57:18;9.00;;;5.60;;
77117;SDS011;66072;50.238;19.228;2023-02-21T06:59:46;8.00;;;5.60;;
77117;SDS011;66072;50.238;19.228;2023-02-21T07:02:14;10.20;;;6.10;;
77117;SDS011;66072;50.238;19.228;2023-02-21T07:07:12;9.30;;;6.10;;
77117;SDS011;66072;50.238;19.228;2023-02-21T07:09:40;11.90;;;6.90;;
77117;SDS011;66072;50.238;19.228;2023-02-21T07:12:08;11.70;;;7.60;;
77117;SDS011;66072;50.238;19.228;2023-02-21T07:14:35;10.60;;;6.80;;
77117;SDS011;66072;50.238;19.228;2023-02-21T07:17:03;14.10;;;9.10;;
77117;SDS011;66072;50.238;19.228;2023-02-21T07:19:31;15.50;;;8.40;;
77117;SDS011;66072;50.238;19.228;2023-02-21T07:21:58;10.90;;;6.30;;
77117;SDS011;66072;50.238;19.228;2023-02-21T07:24:26;13.70;;;7.70;;
77117;SDS011;66072;50.238;19.228;2023-02-21T07:26:54;10.40;;;5.60;;
77117;SDS011;66072;50.238;19.228;2023-02-21T07:29:22;9.70;;;5.40;;
77117;SDS011;66072;50.238;19.228;2023-02-21T07:31:50;10.20;;;7.60;;
77117;SDS011;66072;50.238;19.228;2023-02-21T07:34:17;9.60;;;6.00;;
77117;SDS011;66072;50.238;19.228;2023-02-21T07:36:45;9.50;;;6.60;;
77117;SDS011;66072;50.238;19.228;2023-02-21T07:39:13;9.30;;;6.00;;
77117;SDS011;66072;50.238;19.228;2023-02-21T07:41:40;13.10;;;8.30;;
77117;SDS011;66072;50.238;19.228;2023-02-21T07:44:09;11.40;;;6.90;;
77117;SDS011;66072;50.238;19.228;2023-02-21T07:46:36;12.40;;;8.00;;
77117;SDS011;66072;50.238;19.228;2023-02-21T07:49:04;14.10;;;10.20;;
77117;SDS011;66072;50.238;19.228;2023-02-21T07:51:32;12.60;;;7.90;;
77117;SDS011;66072;50.238;19.228;2023-02-21T07:53:59;15.90;;;9.50;;
77117;SDS011;66072;50.238;19.228;2023-02-21T07:56:27;12.90;;;7.60;;
77117;SDS011;66072;50.238;19.228;2023-02-21T07:58:55;11.90;;;8.50;;
77117;SDS011;66072;50.238;19.228;2023-02-21T08:01:23;11.60;;;7.80;;
77117;SDS011;66072;50.238;19.228;2023-02-21T08:03:52;12.20;;;8.30;;
77117;SDS011;66072;50.238;19.228;2023-02-21T08:06:20;12.00;;;8.80;;
77117;SDS011;66072;50.238;19.228;2023-02-21T08:08:48;13.50;;;8.50;;
77117;SDS011;66072;50.238;19.228;2023-02-21T08:11:15;11.00;;;8.40;;
77117;SDS011;66072;50.238;19.228;2023-02-21T08:13:43;13.30;;;8.80;;
77117;SDS011;66072;50.238;19.228;2023-02-21T08:16:11;11.30;;;7.20;;
77117;SDS011;66072;50.238;19.228;2023-02-21T08:18:38;10.50;;;7.40;;
77117;SDS011;66072;50.238;19.228;2023-02-21T08:21:07;12.30;;;9.10;;
77117;SDS011;66072;50.238;19.228;2023-02-21T08:23:36;12.50;;;9.00;;
77117;SDS011;66072;50.238;19.228;2023-02-21T08:26:04;9.60;;;6.50;;
77117;SDS011;66072;50.238;19.228;2023-02-21T08:28:32;7.90;;;5.40;;
77117;SDS011;66072;50.238;19.228;2023-02-21T08:30:59;10.00;;;6.40;;
77117;SDS011;66072;50.238;19.228;2023-02-21T08:33:27;9.70;;;7.50;;
77117;SDS011;66072;50.238;19.228;2023-02-21T08:35:58;11.70;;;8.10;;
77117;SDS011;66072;50.238;19.228;2023-02-21T08:38:25;11.10;;;8.00;;
77117;SDS011;66072;50.238;19.228;2023-02-21T08:40:53;9.70;;;6.80;;
77117;SDS011;66072;50.238;19.228;2023-02-21T08:43:23;11.80;;;7.40;;
77117;SDS011;66072;50.238;19.228;2023-02-21T08:45:51;14.50;;;9.50;;
77117;SDS011;66072;50.238;19.228;2023-02-21T08:48:19;8.30;;;6.20;;
77117;SDS011;66072;50.238;19.228;2023-02-21T08:50:47;11.40;;;9.10;;
77117;SDS011;66072;50.238;19.228;2023-02-21T08:53:14;11.00;;;6.40;;
77117;SDS011;66072;50.238;19.228;2023-02-21T08:55:42;10.90;;;6.60;;
77117;SDS011;66072;50.238;19.228;2023-02-21T08:58:11;9.10;;;6.10;;
77117;SDS011;66072;50.238;19.228;2023-02-21T09:00:39;7.90;;;5.90;;
77117;SDS011;66072;50.238;19.228;2023-02-21T09:03:07;9.10;;;6.70;;
77117;SDS011;66072;50.238;19.228;2023-02-21T09:05:35;8.70;;;5.50;;
77117;SDS011;66072;50.238;19.228;2023-02-21T09:08:03;9.30;;;6.00;;
77117;SDS011;66072;50.238;19.228;2023-02-21T09:10:31;10.70;;;5.90;;
77117;SDS011;66072;50.238;19.228;2023-02-21T09:13:00;10.20;;;5.80;;
77117;SDS011;66072;50.238;19.228;2023-02-21T09:15:28;9.90;;;5.90;;
77117;SDS011;66072;50.238;19.228;2023-02-21T09:17:56;8.60;;;6.20;;
77117;SDS011;66072;50.238;19.228;2023-02-21T09:20:24;7.90;;;5.80;;
77117;SDS011;66072;50.238;19.228;2023-02-21T09:22:53;6.70;;;3.90;;
77117;SDS011;66072;50.238;19.228;2023-02-21T09:25:22;7.80;;;5.10;;
77117;SDS011;66072;50.238;19.228;2023-02-21T09:27:51;9.00;;;5.60;;
77117;SDS011;66072;50.238;19.228;2023-02-21T09:30:22;5.10;;;3.30;;
77117;SDS011;66072;50.238;19.228;2023-02-21T09:32:51;8.10;;;4.70;;
77117;SDS011;66072;50.238;19.228;2023-02-21T09:35:21;6.30;;;4.10;;
77117;SDS011;66072;50.238;19.228;2023-02-21T09:37:49;5.30;;;3.50;;
77117;SDS011;66072;50.238;19.228;2023-02-21T09:40:20;5.70;;;3.90;;
77117;SDS011;66072;50.238;19.228;2023-02-21T09:42:59;5.40;;;3.70;;
77117;SDS011;66072;50.238;19.228;2023-02-21T09:45:32;7.00;;;4.60;;
77117;SDS011;66072;50.238;19.228;2023-02-21T09:48:06;5.40;;;3.50;;
77117;SDS011;66072;50.238;19.228;2023-02-21T09:50:47;7.80;;;4.60;;
77117;SDS011;66072;50.238;19.228;2023-02-21T09:53:21;8.20;;;4.60;;
77117;SDS011;66072;50.238;19.228;2023-02-21T09:55:59;7.40;;;4.30;;
77117;SDS011;66072;50.238;19.228;2023-02-21T09:58:31;5.30;;;3.90;;
77117;SDS011;66072;50.238;19.228;2023-02-21T10:01:03;6.40;;;3.50;;
77117;SDS011;66072;50.238;19.228;2023-02-21T10:03:43;5.20;;;3.50;;
77117;SDS011;66072;50.238;19.228;2023-02-21T10:08:53;6.50;;;3.80;;
77117;SDS011;66072;50.238;19.228;2023-02-21T10:20:05;5.20;;;3.10;;
77117;SDS011;66072;50.238;19.228;2023-02-21T10:22:40;8.40;;;4.60;;
77117;SDS011;66072;50.238;19.228;2023-02-21T10:25:17;5.80;;;3.60;;
77117;SDS011;66072;50.238;19.228;2023-02-21T10:27:49;7.40;;;3.80;;
77117;SDS011;66072;50.238;19.228;2023-02-21T10:30:40;7.80;;;4.50;;
77117;SDS011;66072;50.238;19.228;2023-02-21T10:33:08;5.50;;;4.20;;
77117;SDS011;66072;50.238;19.228;2023-02-21T10:35:36;7.00;;;4.60;;
77117;SDS011;66072;50.238;19.228;2023-02-21T10:38:06;7.00;;;4.00;;
77117;SDS011;66072;50.238;19.228;2023-02-21T10:40:51;6.90;;;3.80;;
77117;SDS011;66072;50.238;19.228;2023-02-21T10:43:31;3.80;;;2.50;;
77117;SDS011;66072;50.238;19.228;2023-02-21T10:46:06;6.10;;;3.40;;
77117;SDS011;66072;50.238;19.228;2023-02-21T10:48:57;6.70;;;3.70;;
77117;SDS011;66072;50.238;19.228;2023-02-21T10:51:39;6.00;;;3.60;;
77117;SDS011;66072;50.238;19.228;2023-02-21T10:54:17;3.70;;;2.60;;
77117;SDS011;66072;50.238;19.228;2023-02-21T10:56:48;5.20;;;2.90;;
77117;SDS011;66072;50.238;19.228;2023-02-21T10:59:19;6.30;;;3.00;;
77117;SDS011;66072;50.238;19.228;2023-02-21T11:01:48;4.70;;;2.70;;
77117;SDS011;66072;50.238;19.228;2023-02-21T11:06:48;5.80;;;3.80;;
77117;SDS011;66072;50.238;19.228;2023-02-21T11:09:23;6.60;;;4.30;;
77117;SDS011;66072;50.238;19.228;2023-02-21T11:22:16;6.90;;;3.90;;
77117;SDS011;66072;50.238;19.228;2023-02-21T11:27:19;6.80;;;3.70;;
77117;SDS011;66072;50.238;19.228;2023-02-21T11:29:47;6.90;;;4.50;;
77117;SDS011;66072;50.238;19.228;2023-02-21T11:32:24;5.60;;;3.50;;
77117;SDS011;66072;50.238;19.228;2023-02-21T11:34:59;5.20;;;3.10;;
77117;SDS011;66072;50.238;19.228;2023-02-21T11:39:56;4.00;;;2.10;;
77117;SDS011;66072;50.238;19.228;2023-02-21T11:42:26;3.60;;;2.30;;
77117;SDS011;66072;50.238;19.228;2023-02-21T11:47:58;4.90;;;2.10;;
77117;SDS011;66072;50.238;19.228;2023-02-21T11:50:30;4.10;;;2.00;;
77117;SDS011;66072;50.238;19.228;2023-02-21T11:58:42;4.40;;;2.30;;
77117;SDS011;66072;50.238;19.228;2023-02-21T12:01:15;4.90;;;2.50;;
77117;SDS011;66072;50.238;19.228;2023-02-21T12:04:12;4.90;;;2.70;;
77117;SDS011;66072;50.238;19.228;2023-02-21T12:09:42;7.00;;;4.70;;
77117;SDS011;66072;50.238;19.228;2023-02-21T12:12:56;5.30;;;3.80;;
77117;SDS011;66072;50.238;19.228;2023-02-21T12:20:56;9.00;;;5.80;;
77117;SDS011;66072;50.238;19.228;2023-02-21T12:29:12;5.90;;;3.30;;
77117;SDS011;66072;50.238;19.228;2023-02-21T12:38:13;4.70;;;3.30;;
77117;SDS011;66072;50.238;19.228;2023-02-21T12:44:14;3.60;;;2.00;;
77117;SDS011;66072;50.238;19.228;2023-02-21T12:49:45;3.80;;;2.30;;
77117;SDS011;66072;50.238;19.228;2023-02-21T12:52:27;4.20;;;2.30;;
77117;SDS011;66072;50.238;19.228;2023-02-21T12:55:05;3.60;;;2.20;;
77117;SDS011;66072;50.238;19.228;2023-02-21T12:58:03;4.00;;;2.10;;
77117;SDS011;66072;50.238;19.228;2023-02-21T13:03:29;3.70;;;2.20;;
77117;SDS011;66072;50.238;19.228;2023-02-21T13:09:20;2.90;;;1.70;;
77117;SDS011;66072;50.238;19.228;2023-02-21T13:12:00;4.30;;;2.20;;
77117;SDS011;66072;50.238;19.228;2023-02-21T13:14:35;4.70;;;2.40;;
77117;SDS011;66072;50.238;19.228;2023-02-21T13:17:11;4.50;;;2.40;;
77117;SDS011;66072;50.238;19.228;2023-02-21T13:22:36;8.10;;;4.30;;
77117;SDS011;66072;50.238;19.228;2023-02-21T13:25:39;5.80;;;3.00;;
77117;SDS011;66072;50.238;19.228;2023-02-21T13:28:19;5.60;;;2.50;;
77117;SDS011;66072;50.238;19.228;2023-02-21T13:30:58;4.60;;;2.40;;
77117;SDS011;66072;50.238;19.228;2023-02-21T13:36:24;3.80;;;2.30;;
77117;SDS011;66072;50.238;19.228;2023-02-21T13:38:55;4.20;;;2.30;;
77117;SDS011;66072;50.238;19.228;2023-02-21T13:41:27;4.20;;;2.30;;
77117;SDS011;66072;50.238;19.228;2023-02-21T13:43:59;3.90;;;2.30;;
77117;SDS011;66072;50.238;19.228;2023-02-21T13:57:36;3.90;;;2.40;;
77117;SDS011;66072;50.238;19.228;2023-02-21T14:02:55;5.30;;;3.00;;
77117;SDS011;66072;50.238;19.228;2023-02-21T14:06:06;4.50;;;3.00;;
77117;SDS011;66072;50.238;19.228;2023-02-21T14:11:15;6.40;;;3.90;;
77117;SDS011;66072;50.238;19.228;2023-02-21T14:13:55;6.40;;;3.50;;
77117;SDS011;66072;50.238;19.228;2023-02-21T14:16:31;7.20;;;4.70;;
77117;SDS011;66072;50.238;19.228;2023-02-21T14:19:47;6.20;;;3.80;;
77117;SDS011;66072;50.238;19.228;2023-02-21T14:22:28;6.20;;;3.80;;
77117;SDS011;66072;50.238;19.228;2023-02-21T14:25:05;6.20;;;3.80;;
77117;SDS011;66072;50.238;19.228;2023-02-21T14:27:42;6.40;;;4.70;;
77117;SDS011;66072;50.238;19.228;2023-02-21T14:32:40;7.00;;;4.20;;
77117;SDS011;66072;50.238;19.228;2023-02-21T14:40:30;5.90;;;3.60;;
77117;SDS011;66072;50.238;19.228;2023-02-21T14:43:21;5.40;;;3.00;;
77117;SDS011;66072;50.238;19.228;2023-02-21T14:46:01;5.80;;;3.40;;
77117;SDS011;66072;50.238;19.228;2023-02-21T14:48:44;8.50;;;3.90;;
77117;SDS011;66072;50.238;19.228;2023-02-21T15:05:04;5.10;;;3.00;;
77117;SDS011;66072;50.238;19.228;2023-02-21T15:18:01;7.60;;;3.80;;
77117;SDS011;66072;50.238;19.228;2023-02-21T15:20:32;7.50;;;3.90;;
77117;SDS011;66072;50.238;19.228;2023-02-21T15:23:15;8.10;;;3.90;;
77117;SDS011;66072;50.238;19.228;2023-02-21T15:25:53;9.20;;;4.90;;
77117;SDS011;66072;50.238;19.228;2023-02-21T15:30:56;7.50;;;4.10;;
77117;SDS011;66072;50.238;19.228;2023-02-21T15:33:27;7.90;;;4.20;;
77117;SDS011;66072;50.238;19.228;2023-02-21T15:36:00;6.90;;;4.50;;
77117;SDS011;66072;50.238;19.228;2023-02-21T15:41:30;6.80;;;4.50;;
77117;SDS011;66072;50.238;19.228;2023-02-21T15:46:51;9.50;;;5.10;;
77117;SDS011;66072;50.238;19.228;2023-02-21T15:49:28;10.80;;;5.10;;
77117;SDS011;66072;50.238;19.228;2023-02-21T15:51:58;7.60;;;3.80;;
77117;SDS011;66072;50.238;19.228;2023-02-21T15:54:29;6.10;;;3.70;;
77117;SDS011;66072;50.238;19.228;2023-02-21T15:57:23;7.60;;;4.10;;
77117;SDS011;66072;50.238;19.228;2023-02-21T15:59:56;6.30;;;4.00;;
77117;SDS011;66072;50.238;19.228;2023-02-21T16:02:49;14.50;;;6.30;;
77117;SDS011;66072;50.238;19.228;2023-02-21T16:05:27;7.60;;;4.00;;
77117;SDS011;66072;50.238;19.228;2023-02-21T16:08:00;9.60;;;5.00;;
77117;SDS011;66072;50.238;19.228;2023-02-21T16:10:29;10.80;;;6.60;;
77117;SDS011;66072;50.238;19.228;2023-02-21T16:13:01;10.80;;;5.90;;
77117;SDS011;66072;50.238;19.228;2023-02-21T16:15:30;9.50;;;6.10;;
77117;SDS011;66072;50.238;19.228;2023-02-21T16:18:01;9.70;;;5.80;;
77117;SDS011;66072;50.238;19.228;2023-02-21T16:20:33;9.80;;;5.40;;
77117;SDS011;66072;50.238;19.228;2023-02-21T16:26:02;7.50;;;4.10;;
77117;SDS011;66072;50.238;19.228;2023-02-21T16:28:40;8.20;;;4.70;;
77117;SDS011;66072;50.238;19.228;2023-02-21T16:31:14;7.30;;;4.70;;
77117;SDS011;66072;50.238;19.228;2023-02-21T16:33:44;8.10;;;4.60;;
77117;SDS011;66072;50.238;19.228;2023-02-21T16:36:17;7.80;;;4.80;;
77117;SDS011;66072;50.238;19.228;2023-02-21T16:38:49;8.50;;;5.00;;
77117;SDS011;66072;50.238;19.228;2023-02-21T16:41:17;9.50;;;5.40;;
77117;SDS011;66072;50.238;19.228;2023-02-21T16:43:45;10.70;;;5.10;;
77117;SDS011;66072;50.238;19.228;2023-02-21T16:46:13;8.30;;;5.20;;
77117;SDS011;66072;50.238;19.228;2023-02-21T16:48:42;10.40;;;6.40;;
77117;SDS011;66072;50.238;19.228;2023-02-21T16:51:12;9.70;;;6.70;;
77117;SDS011;66072;50.238;19.228;2023-02-21T16:53:40;12.40;;;8.50;;
77117;SDS011;66072;50.238;19.228;2023-02-21T16:56:10;14.10;;;9.10;;
77117;SDS011;66072;50.238;19.228;2023-02-21T16:58:42;15.00;;;8.90;;
77117;SDS011;66072;50.238;19.228;2023-02-21T17:01:15;12.80;;;7.20;;
77117;SDS011;66072;50.238;19.228;2023-02-21T17:03:47;12.90;;;6.90;;
77117;SDS011;66072;50.238;19.228;2023-02-21T17:06:16;13.80;;;8.10;;
77117;SDS011;66072;50.238;19.228;2023-02-21T17:08:46;12.70;;;8.70;;
77117;SDS011;66072;50.238;19.228;2023-02-21T17:11:14;10.70;;;6.70;;
77117;SDS011;66072;50.238;19.228;2023-02-21T17:13:42;12.80;;;7.50;;
77117;SDS011;66072;50.238;19.228;2023-02-21T17:16:10;15.10;;;8.60;;
77117;SDS011;66072;50.238;19.228;2023-02-21T17:18:37;11.90;;;8.10;;
77117;SDS011;66072;50.238;19.228;2023-02-21T17:21:05;10.40;;;6.40;;
77117;SDS011;66072;50.238;19.228;2023-02-21T17:23:33;10.40;;;5.20;;
77117;SDS011;66072;50.238;19.228;2023-02-21T17:26:00;9.90;;;6.10;;
77117;SDS011;66072;50.238;19.228;2023-02-21T17:28:28;8.10;;;4.60;;
77117;SDS011;66072;50.238;19.228;2023-02-21T17:30:56;6.70;;;4.60;;
77117;SDS011;66072;50.238;19.228;2023-02-21T17:33:23;7.90;;;4.00;;
77117;SDS011;66072;50.238;19.228;2023-02-21T17:35:51;9.70;;;5.20;;
77117;SDS011;66072;50.238;19.228;2023-02-21T17:38:19;9.80;;;5.30;;
77117;SDS011;66072;50.238;19.228;2023-02-21T17:40:47;9.00;;;5.10;;